Time;durP1;ratioP1;P1;durP2;ratioP2;P2;SDS_P1;SDS_P2;PMS_P1;PMS_P2;Temp;Humidity;BMP_temperature;BMP_pressure;BME280_temperature;BME280_humidity;BME280_pressure;Samples;Min_cycle;Max_cycle;Signal;HPM_P1;HPM_P2
2023/04/07 00:03:50;;;;;;;;;;;;;;;;;;6206215;23;19920;-86
2023/04/07 00:06:32;;;;;;;;;;;;;;;;;;6145833;23;20006;-86
2023/04/07 00:09:04;;;;;;;;;;;;;;;;;;6110395;23;20326;-86
2023/04/07 00:17:41;;;;;;;;;;;;;;;;;;6150235;23;20227;-87
2023/04/07 00:20:51;;;;;;;;;;;;;;;;;;6037244;23;19961;-86
2023/04/07 00:23:54;;;;;;;;;;;;;;;;;;;;;
2023/04/07 00:26:45;;;;;;;;;;;;;;;;;;6037385;23;19922;-86
2023/04/07 00:29:11;;;;;;;;;;;;;;;;;;6285887;22;20239;-92
2023/04/07 00:31:37;;;;;;;;;;;;;;;;;;6262713;22;20025;-93
2023/04/07 00:34:06;;;;;;;;;;;;;;;;;;6230541;22;19923;-91
2023/04/07 00:36:34;;;;;;;;;;;;;;;;;;6267876;22;19921;-92
2023/04/07 00:39:00;;;;;;;;;;;;;;;;;;6239198;22;19919;-92
2023/04/07 00:41:27;;;;;;;;;;;;;;;;;;6264719;22;19915;-92
2023/04/07 00:43:53;;;;;;;;;;;;;;;;;;6240514;22;20358;-92
2023/04/07 00:46:19;;;;;;;;;;;;;;;;;;6237973;22;19998;-92
2023/04/07 00:48:45;;;;;;;;;;;;;;;;;;6267358;22;19918;-92
2023/04/07 00:51:11;;;;;;;;;;;;;;;;;;6262982;22;19918;-92
2023/04/07 00:53:42;;;;;;;;;;;;;;;;;;6241309;22;19942;-92
2023/04/07 00:56:12;;;;;;;;;;;;;;;;;;6262051;22;20343;-92
2023/04/07 00:58:38;;;;;;;;;;;;;;;;;;6266232;22;19926;-92
2023/04/07 01:01:07;;;;;;;;;;;;;;;;;;6235904;22;19930;-93
2023/04/07 01:03:35;;;;;;;;;;;;;;;;;;6267597;22;19980;-92
2023/04/07 01:06:01;;;;;;;;;;;;;;;;;;6237795;22;19919;-92
2023/04/07 01:08:28;;;;;;;;;;;;;;;;;;6266748;22;19918;-93
2023/04/07 01:10:54;;;;;;;;;;;;;;;;;;6263661;22;19923;-91
2023/04/07 01:13:20;;;;;;;;;;;;;;;;;;6241356;22;20257;-91
2023/04/07 01:15:49;;;;;;;;;;;;;;;;;;6241352;22;19922;-92
2023/04/07 01:18:15;;;;;;;;;;;;;;;;;;6238277;22;19926;-92
2023/04/07 01:20:41;;;;;;;;;;;;;;;;;;6237325;22;19971;-91
2023/04/07 01:23:07;;;;;;;;;;;;;;;;;;6237506;22;20332;-92
2023/04/07 01:25:33;;;;;;;;;;;;;;;;;;6266705;22;19923;-93
2023/04/07 01:28:02;;;;;;;;;;;;;;;;;;6237493;22;20323;-92
2023/04/07 01:30:28;;;;;;;;;;;;;;;;;;6239737;22;19922;-92
2023/04/07 01:32:55;;;;;;;;;;;;;;;;;;6237885;22;20391;-93
2023/04/07 01:35:21;;;;;;;;;;;;;;;;;;6239130;22;19929;-92
2023/04/07 01:37:49;;;;;;;;;;;;;;;;;;6240957;22;19918;-92
2023/04/07 01:40:15;;;;;;;;;;;;;;;;;;6239317;22;19998;-92
2023/04/07 01:42:41;;;;;;;;;;;;;;;;;;6264774;22;19915;-92
2023/04/07 01:45:07;;;;;;;;;;;;;;;;;;6263231;22;20269;-91
2023/04/07 01:47:33;;;;;;;;;;;;;;;;;;6296512;22;19923;-92
2023/04/07 01:49:59;;;;;;;;;;;;;;;;;;6238700;22;19914;-92
2023/04/07 01:52:28;;;;;;;;;;;;;;;;;;6266116;22;20257;-92
2023/04/07 01:54:54;;;;;;;;;;;;;;;;;;6263091;22;20327;-92
2023/04/07 01:57:20;;;;;;;;;;;;;;;;;;6265485;22;19999;-92
2023/04/07 01:59:48;;;;;;;;;;;;;;;;;;6240585;22;19919;-92
2023/04/07 02:02:14;;;;;;;;;;;;;;;;;;6239650;22;19973;-92
2023/04/07 02:04:40;;;;;;;;;;;;;;;;;;6239066;22;19919;-93
2023/04/07 02:07:06;;;;;;;;;;;;;;;;;;6238193;22;20300;-93
2023/04/07 02:09:32;;;;;;;;;;;;;;;;;;6239410;22;19918;-92
2023/04/07 02:11:59;;;;;;;;;;;;;;;;;;6238355;22;19915;-92
2023/04/07 02:14:25;;;;;;;;;;;;;;;;;;6242826;22;19922;-92
2023/04/07 02:16:51;;;;;;;;;;;;;;;;;;6236846;22;20362;-92
2023/04/07 02:19:17;;;;;;;;;;;;;;;;;;6238660;22;19993;-92
2023/04/07 02:21:43;;;;;;;;;;;;;;;;;;6240264;22;19915;-92
2023/04/07 02:24:09;;;;;;;;;;;;;;;;;;6239651;22;19919;-92
2023/04/07 02:26:35;;;;;;;;;;;;;;;;;;6265147;22;20323;-92
2023/04/07 02:29:01;;;;;;;;;;;;;;;;;;6230839;22;19923;-92
2023/04/07 02:31:27;;;;;;;;;;;;;;;;;;6235084;22;19927;-92
2023/04/07 02:33:53;;;;;;;;;;;;;;;;;;6258968;22;19927;-92
2023/04/07 02:36:19;;;;;;;;;;;;;;;;;;6236411;22;19938;-92
2023/04/07 02:38:45;;;;;;;;;;;;;;;;;;6236100;22;19926;-92
2023/04/07 02:41:11;;;;;;;;;;;;;;;;;;6231736;22;19947;-93
2023/04/07 02:43:37;;;;;;;;;;;;;;;;;;6234287;22;19919;-92
2023/04/07 02:46:03;;;;;;;;;;;;;;;;;;6233275;22;19926;-92
2023/04/07 02:48:29;;;;;;;;;;;;;;;;;;6260390;22;19919;-92
2023/04/07 02:50:55;;;;;;;;;;;;;;;;;;6258448;22;19926;-92
2023/04/07 02:53:21;;;;;;;;;;;;;;;;;;6234616;22;20361;-93
2023/04/07 02:55:47;;;;;;;;;;;;;;;;;;6257978;22;19919;-93
2023/04/07 02:58:13;;;;;;;;;;;;;;;;;;6235697;22;19927;-92
2023/04/07 03:00:39;;;;;;;;;;;;;;;;;;6233545;22;19970;-92
2023/04/07 03:03:05;;;;;;;;;;;;;;;;;;6258667;22;19942;-92
2023/04/07 03:05:31;;;;;;;;;;;;;;;;;;6234881;22;19919;-92
2023/04/07 03:07:57;;;;;;;;;;;;;;;;;;6231394;22;19988;-92
2023/04/07 03:10:23;;;;;;;;;;;;;;;;;;6260161;22;19930;-92
2023/04/07 03:12:50;;;;;;;;;;;;;;;;;;6233221;22;19919;-92
2023/04/07 03:15:16;;;;;;;;;;;;;;;;;;6234654;22;19915;-92
2023/04/07 03:17:42;;;;;;;;;;;;;;;;;;6233022;22;20399;-92
2023/04/07 03:20:08;;;;;;;;;;;;;;;;;;6232902;22;19919;-92
2023/04/07 03:22:34;;;;;;;;;;;;;;;;;;6235942;22;19927;-92
2023/04/07 03:25:00;;;;;;;;;;;;;;;;;;6258364;22;19954;-93
2023/04/07 03:27:26;;;;;;;;;;;;;;;;;;6234554;22;19920;-92
2023/04/07 03:29:52;;;;;;;;;;;;;;;;;;6231810;22;20241;-93
2023/04/07 03:32:18;;;;;;;;;;;;;;;;;;6235642;22;20028;-93
2023/04/07 03:34:44;;;;;;;;;;;;;;;;;;6260905;22;19919;-92
2023/04/07 03:37:10;;;;;;;;;;;;;;;;;;6231420;22;19919;-92
2023/04/07 03:39:36;;;;;;;;;;;;;;;;;;6234353;22;19957;-92
2023/04/07 03:42:02;;;;;;;;;;;;;;;;;;6231616;22;20002;-92
2023/04/07 03:44:28;;;;;;;;;;;;;;;;;;6231538;22;19994;-92
2023/04/07 03:46:54;;;;;;;;;;;;;;;;;;6257995;22;19926;-93
2023/04/07 03:49:21;;;;;;;;;;;;;;;;;;6258889;22;19919;-93
2023/04/07 03:51:47;;;;;;;;;;;;;;;;;;6236373;22;19930;-93
2023/04/07 03:54:13;;;;;;;;;;;;;;;;;;6236040;22;20386;-92
2023/04/07 03:56:39;;;;;;;;;;;;;;;;;;6235660;22;19927;-93
2023/04/07 03:59:05;;;;;;;;;;;;;;;;;;6231254;22;19915;-92
2023/04/07 04:01:31;;;;;;;;;;;;;;;;;;6258286;22;19926;-93
2023/04/07 04:03:57;;;;;;;;;;;;;;;;;;6231798;22;19919;-93
2023/04/07 04:06:23;;;;;;;;;;;;;;;;;;6237141;22;19923;-92
2023/04/07 04:08:50;;;;;;;;;;;;;;;;;;6233081;22;19919;-92
2023/04/07 04:11:15;;;;;;;;;;;;;;;;;;6260578;22;19921;-92
2023/04/07 04:13:42;;;;;;;;;;;;;;;;;;6238810;22;19993;-92
2023/04/07 04:16:08;;;;;;;;;;;;;;;;;;6233097;22;19926;-92
2023/04/07 04:18:34;;;;;;;;;;;;;;;;;;6260556;22;19923;-92
2023/04/07 04:21:00;;;;;;;;;;;;;;;;;;6234013;22;19919;-92
2023/04/07 04:23:26;;;;;;;;;;;;;;;;;;6235871;22;19919;-93
2023/04/07 04:25:52;;;;;;;;;;;;;;;;;;6235660;22;19976;-92
2023/04/07 04:28:18;;;;;;;;;;;;;;;;;;6237904;22;20023;-92
2023/04/07 04:30:44;;;;;;;;;;;;;;;;;;6238391;22;20332;-92
2023/04/07 04:33:10;;;;;;;;;;;;;;;;;;6260515;22;19923;-93
2023/04/07 04:35:36;;;;;;;;;;;;;;;;;;6238262;22;19919;-92
2023/04/07 04:38:05;;;;;;;;;;;;;;;;;;6234588;22;20021;-92
2023/04/07 04:40:31;;;;;;;;;;;;;;;;;;6233134;22;20173;-93
2023/04/07 04:42:57;;;;;;;;;;;;;;;;;;6262474;22;20289;-93
2023/04/07 04:45:23;;;;;;;;;;;;;;;;;;6259444;22;19990;-93
2023/04/07 04:47:49;;;;;;;;;;;;;;;;;;6233964;22;19922;-91
2023/04/07 04:50:15;;;;;;;;;;;;;;;;;;6233511;22;19919;-92
2023/04/07 04:52:42;;;;;;;;;;;;;;;;;;6258025;22;19974;-92
2023/04/07 04:55:08;;;;;;;;;;;;;;;;;;6234827;22;20389;-93
2023/04/07 04:57:35;;;;;;;;;;;;;;;;;;6236789;22;19926;-92
2023/04/07 05:00:01;;;;;;;;;;;;;;;;;;6232241;22;19919;-92
2023/04/07 05:02:27;;;;;;;;;;;;;;;;;;6235031;22;20358;-92
2023/04/07 05:04:53;;;;;;;;;;;;;;;;;;6232772;22;20282;-92
2023/04/07 05:07:19;;;;;;;;;;;;;;;;;;6235776;22;19986;-91
2023/04/07 05:09:45;;;;;;;;;;;;;;;;;;6260080;22;19919;-94
2023/04/07 05:12:11;;;;;;;;;;;;;;;;;;6232944;22;20363;-92
2023/04/07 05:14:36;;;;;;;;;;;;;;;;;;6233836;22;19919;-93
2023/04/07 05:17:03;;;;;;;;;;;;;;;;;;6258771;22;19919;-92
2023/04/07 05:19:29;;;;;;;;;;;;;;;;;;6233380;22;19919;-92
2023/04/07 05:21:55;;;;;;;;;;;;;;;;;;6230068;22;19919;-93
2023/04/07 05:24:21;;;;;;;;;;;;;;;;;;6235173;22;20320;-91
2023/04/07 05:26:47;;;;;;;;;;;;;;;;;;6232907;22;20252;-93
2023/04/07 05:29:13;;;;;;;;;;;;;;;;;;6262153;22;19923;-92
2023/04/07 05:31:40;;;;;;;;;;;;;;;;;;6233116;22;20620;-92
2023/04/07 05:34:06;;;;;;;;;;;;;;;;;;6229015;22;20251;-92
2023/04/07 05:36:32;;;;;;;;;;;;;;;;;;6234893;22;19990;-93
2023/04/07 05:38:58;;;;;;;;;;;;;;;;;;6231825;22;19926;-93
2023/04/07 05:41:24;;;;;;;;;;;;;;;;;;6236822;22;19919;-94
2023/04/07 05:43:50;;;;;;;;;;;;;;;;;;6260342;22;19922;-93
2023/04/07 05:46:16;;;;;;;;;;;;;;;;;;6237652;22;20350;-93
2023/04/07 05:48:42;;;;;;;;;;;;;;;;;;6260870;22;19926;-93
2023/04/07 05:51:08;;;;;;;;;;;;;;;;;;6258657;22;20271;-93
2023/04/07 05:53:34;;;;;;;;;;;;;;;;;;6234221;22;20238;-92
2023/04/07 05:56:00;;;;;;;;;;;;;;;;;;6234730;22;19919;-92
2023/04/07 05:58:26;;;;;;;;;;;;;;;;;;6236598;22;19935;-92
2023/04/07 06:00:52;;;;;;;;;;;;;;;;;;6236016;22;20247;-93
2023/04/07 06:03:18;;;;;;;;;;;;;;;;;;6235643;22;19954;-93
2023/04/07 06:05:44;;;;;;;;;;;;;;;;;;6262116;22;20021;-93
2023/04/07 06:08:10;;;;;;;;;;;;;;;;;;6232615;22;19974;-93
2023/04/07 06:10:36;;;;;;;;;;;;;;;;;;6237178;22;19951;-93
2023/04/07 06:13:02;;;;;;;;;;;;;;;;;;6258864;22;19919;-92
2023/04/07 06:15:28;;;;;;;;;;;;;;;;;;6234814;22;20052;-92
2023/04/07 06:17:54;;;;;;;;;;;;;;;;;;6259459;22;19961;-93
2023/04/07 06:20:21;;;;;;;;;;;;;;;;;;6236930;22;20226;-93
2023/04/07 06:22:47;;;;;;;;;;;;;;;;;;6236334;22;19923;-92
2023/04/07 06:25:13;;;;;;;;;;;;;;;;;;6236625;22;20332;-92
2023/04/07 06:27:42;;;;;;;;;;;;;;;;;;6237101;22;19922;-92
2023/04/07 06:30:08;;;;;;;;;;;;;;;;;;6232701;22;20252;-92
2023/04/07 06:32:34;;;;;;;;;;;;;;;;;;6259482;22;19934;-93
2023/04/07 06:35:07;;;;;;;;;;;;;;;;;;6233231;22;19915;-93
2023/04/07 06:37:33;;;;;;;;;;;;;;;;;;6235367;22;19931;-92
2023/04/07 06:40:02;;;;;;;;;;;;;;;;;;6232174;22;19919;-93
2023/04/07 06:42:28;;;;;;;;;;;;;;;;;;6238797;22;19922;-92
2023/04/07 06:44:54;;;;;;;;;;;;;;;;;;6236219;22;19956;-93
2023/04/07 06:47:20;;;;;;;;;;;;;;;;;;6237329;22;19919;-93
2023/04/07 06:49:50;;;;;;;;;;;;;;;;;;6234749;22;19919;-94
2023/04/07 06:52:16;;;;;;;;;;;;;;;;;;6238640;22;19923;-93
2023/04/07 06:54:42;;;;;;;;;;;;;;;;;;6233024;22;19927;-93
2023/04/07 06:57:10;;;;;;;;;;;;;;;;;;6232439;22;19923;-92
2023/04/07 06:59:36;;;;;;;;;;;;;;;;;;6235296;22;20256;-92
2023/04/07 07:02:02;;;;;;;;;;;;;;;;;;6234103;22;20339;-92
2023/04/07 07:04:28;;;;;;;;;;;;;;;;;;6233762;22;19946;-92
2023/04/07 07:06:54;;;;;;;;;;;;;;;;;;6261264;22;19926;-93
2023/04/07 07:09:20;;;;;;;;;;;;;;;;;;6235270;22;19919;-93
2023/04/07 07:11:52;;;;;;;;;;;;;;;;;;6236174;22;19970;-93
2023/04/07 07:14:19;;;;;;;;;;;;;;;;;;6235090;22;19923;-93
2023/04/07 07:16:45;;;;;;;;;;;;;;;;;;6236859;22;19919;-93
2023/04/07 07:19:13;;;;;;;;;;;;;;;;;;6234340;22;19919;-93
2023/04/07 07:21:39;;;;;;;;;;;;;;;;;;6237002;22;19920;-93
2023/04/07 07:24:08;;;;;;;;;;;;;;;;;;6236571;22;19927;-92
2023/04/07 07:26:40;;;;;;;;;;;;;;;;;;6240371;22;19916;-92
2023/04/07 07:29:09;;;;;;;;;;;;;;;;;;6260694;22;19928;-93
2023/04/07 07:31:40;;;;;;;;;;;;;;;;;;6239990;22;19997;-92
2023/04/07 07:34:12;;;;;;;;;;;;;;;;;;6261083;22;20370;-93
2023/04/07 07:36:38;;;;;;;;;;;;;;;;;;6240623;22;19919;-93
2023/04/07 07:39:28;;;;;;;;;;;;;;;;;;;;;
2023/04/07 07:42:06;;;;;;;;;;;;;;;;;;6262269;22;19916;-93
2023/04/07 07:51:19;;;;;;;;;;;;;;;;;;;;;
2023/04/07 07:57:22;;;;;;;;;;;;;;;;;;6038841;23;20381;-93
2023/04/07 08:00:22;;;;;;;;;;;;;;;;;;6013480;23;20049;-92
2023/04/07 08:09:20;;;;;;;;;;;;;;;;;;5987610;23;19929;-93
2023/04/07 08:21:08;;;;;;;;;;;;;;;;;;6049146;23;19968;-93
2023/04/07 08:23:49;;;;;;;;;;;;;;;;;;;;;
2023/04/07 08:32:53;;;;;;;;;;;;;;;;;;;;;
2023/04/07 08:35:39;;;;;;;;;;;;;;;;;;;;;
2023/04/07 08:38:36;;;;;;;;;;;;;;;;;;;;;
2023/04/07 08:41:38;;;;;;;;;;;;;;;;;;;;;
2023/04/07 08:44:22;;;;;;;;;;;;;;;;;;6200785;23;19966;-92
2023/04/07 09:02:18;;;;;;;;;;;;;;;;;;5995440;23;19918;-92
2023/04/07 09:04:44;;;;;;;;;;;;;;;;;;6014556;23;20373;-93
2023/04/07 09:07:10;;;;;;;;;;;;;;;;;;6078767;23;19992;-93
2023/04/07 09:09:51;;;;;;;;;;;;;;;;;;6122710;23;19920;-92
2023/04/07 09:12:20;;;;;;;;;;;;;;;;;;6121405;23;19921;-93
2023/04/07 09:14:55;;;;;;;;;;;;;;;;;;6121642;23;19975;-94
2023/04/07 09:17:30;;;;;;;;;;;;;;;;;;6124591;23;19924;-93
2023/04/07 09:19:59;;;;;;;;;;;;;;;;;;6122496;23;20298;-93
2023/04/07 09:25:26;;;;;;;;;;;;;;;;;;6168719;23;19970;-92
2023/04/07 09:27:52;;;;;;;;;;;;;;;;;;6175205;23;20365;-92
2023/04/07 09:30:26;;;;;;;;;;;;;;;;;;6103250;23;19935;-91
2023/04/07 09:33:11;;;;;;;;;;;;;;;;;;6201711;22;19923;-91
2023/04/07 09:35:40;;;;;;;;;;;;;;;;;;6265023;22;20355;-92
2023/04/07 09:38:06;;;;;;;;;;;;;;;;;;6264245;22;19919;-92
2023/04/07 09:40:32;;;;;;;;;;;;;;;;;;6264091;22;19972;-92
2023/04/07 09:42:58;;;;;;;;;;;;;;;;;;6237127;22;19919;-92
2023/04/07 09:45:27;;;;;;;;;;;;;;;;;;6240394;22;20257;-92
2023/04/07 09:47:53;;;;;;;;;;;;;;;;;;6233272;22;19997;-93
2023/04/07 09:50:22;;;;;;;;;;;;;;;;;;6262696;22;19926;-92
2023/04/07 09:52:48;;;;;;;;;;;;;;;;;;6262780;22;19963;-93
2023/04/07 09:55:17;;;;;;;;;;;;;;;;;;6265748;22;19962;-92
2023/04/07 09:57:46;;;;;;;;;;;;;;;;;;6238720;22;19923;-92
2023/04/07 10:00:15;;;;;;;;;;;;;;;;;;6237573;22;19915;-92
2023/04/07 10:02:49;;;;;;;;;;;;;;;;;;6240659;22;19919;-93
2023/04/07 10:05:15;;;;;;;;;;;;;;;;;;6266017;22;19980;-91
2023/04/07 10:07:44;;;;;;;;;;;;;;;;;;6243615;22;19919;-92
2023/04/07 10:10:10;;;;;;;;;;;;;;;;;;6237829;22;19919;-92
2023/04/07 10:12:36;;;;;;;;;;;;;;;;;;6262405;22;19930;-92
2023/04/07 10:15:05;;;;;;;;;;;;;;;;;;6236242;22;19915;-92
2023/04/07 10:17:31;;;;;;;;;;;;;;;;;;6241636;22;19990;-93
2023/04/07 10:19:57;;;;;;;;;;;;;;;;;;6237108;22;19962;-92
2023/04/07 10:22:26;;;;;;;;;;;;;;;;;;6237570;22;20411;-92
2023/04/07 10:24:52;;;;;;;;;;;;;;;;;;6235189;22;19950;-92
2023/04/07 10:27:21;;;;;;;;;;;;;;;;;;6237971;22;19922;-92
2023/04/07 10:29:47;;;;;;;;;;;;;;;;;;6234801;22;19986;-92
2023/04/07 10:32:13;;;;;;;;;;;;;;;;;;6238090;22;19930;-92
2023/04/07 10:34:39;;;;;;;;;;;;;;;;;;6237232;22;19915;-92
2023/04/07 10:37:13;;;;;;;;;;;;;;;;;;6233774;22;19925;-92
2023/04/07 10:39:42;;;;;;;;;;;;;;;;;;6234071;22;19919;-93
2023/04/07 10:42:08;;;;;;;;;;;;;;;;;;6258363;22;19938;-92
2023/04/07 10:44:37;;;;;;;;;;;;;;;;;;6238160;22;19919;-93
2023/04/07 10:47:06;;;;;;;;;;;;;;;;;;6235450;22;19923;-93
2023/04/07 10:49:37;;;;;;;;;;;;;;;;;;6234584;22;20382;-93
2023/04/07 10:52:13;;;;;;;;;;;;;;;;;;6236125;22;19915;-93
2023/04/07 10:54:48;;;;;;;;;;;;;;;;;;6238454;22;19930;-92
2023/04/07 10:57:14;;;;;;;;;;;;;;;;;;6237795;22;19984;-92
2023/04/07 10:59:51;;;;;;;;;;;;;;;;;;;;;
2023/04/07 11:02:23;;;;;;;;;;;;;;;;;;6264174;22;19919;-92
2023/04/07 11:04:52;;;;;;;;;;;;;;;;;;6242607;22;19919;-91
2023/04/07 11:07:19;;;;;;;;;;;;;;;;;;6239850;22;19994;-92
2023/04/07 11:09:48;;;;;;;;;;;;;;;;;;6239303;22;19923;-93
2023/04/07 11:12:20;;;;;;;;;;;;;;;;;;6239340;22;19923;-92
2023/04/07 11:14:55;;;;;;;;;;;;;;;;;;6238071;22;19926;-92
2023/04/07 11:17:31;;;;;;;;;;;;;;;;;;6237430;22;19942;-92
2023/04/07 11:20:00;;;;;;;;;;;;;;;;;;6236569;22;20006;-92
2023/04/07 11:22:26;;;;;;;;;;;;;;;;;;6238682;22;20244;-92
2023/04/07 11:24:58;;;;;;;;;;;;;;;;;;6259157;22;20292;-93
2023/04/07 11:27:32;;;;;;;;;;;;;;;;;;6235089;22;19923;-94
2023/04/07 11:29:58;;;;;;;;;;;;;;;;;;6232279;22;19953;-93
2023/04/07 11:32:28;;;;;;;;;;;;;;;;;;6235094;22;19950;-93
2023/04/07 11:34:59;;;;;;;;;;;;;;;;;;6234347;22;19915;-93
2023/04/07 11:37:27;;;;;;;;;;;;;;;;;;6235996;22;19920;-92
2023/04/07 11:40:05;;;;;;;;;;;;;;;;;;6233181;22;20379;-93
2023/04/07 11:42:45;;;;;;;;;;;;;;;;;;6236370;22;19919;-93
2023/04/07 11:45:19;;;;;;;;;;;;;;;;;;6234408;22;19980;-94
2023/04/07 11:48:15;;;;;;;;;;;;;;;;;;6255369;22;19919;-94
2023/04/07 12:02:40;;;;;;;;;;;;;;;;;;6261710;22;19965;-92
2023/04/07 12:05:09;;;;;;;;;;;;;;;;;;6230850;22;20022;-92
2023/04/07 12:07:41;;;;;;;;;;;;;;;;;;6236397;22;19967;-91
2023/04/07 12:10:10;;;;;;;;;;;;;;;;;;6239117;22;20252;-92
2023/04/07 12:18:34;;;;;;;;;;;;;;;;;;6167368;23;19962;-93
2023/04/07 12:21:15;;;;;;;;;;;;;;;;;;6141875;23;19920;-93
2023/04/07 12:30:04;;;;;;;;;;;;;;;;;;;;;
2023/04/07 12:35:49;;;;;;;;;;;;;;;;;;6180747;23;19924;-94
2023/04/07 12:41:59;;;;;;;;;;;;;;;;;;6101909;23;20006;-93
2023/04/07 12:54:00;;;;;;;;;;;;;;;;;;6144441;22;19934;-84
2023/04/07 12:56:38;;;;;;;;;;;;;;;;;;6264573;22;20636;-84
2023/04/07 12:59:15;;;;;;;;;;;;;;;;;;6236322;22;20357;-85
2023/04/07 13:02:02;;;;;;;;;;;;;;;;;;6249007;22;20287;-84
2023/04/07 13:04:45;;;;;;;;;;;;;;;;;;6262855;22;20259;-84
2023/04/07 13:07:21;;;;;;;;;;;;;;;;;;6242783;22;20028;-85
2023/04/07 13:10:01;;;;;;;;;;;;;;;;;;6235600;22;19919;-85
2023/04/07 13:13:00;;;;;;;;;;;;;;;;;;6269337;22;19985;-84
2023/04/07 13:15:57;;;;;;;;;;;;;;;;;;6278995;22;19918;-84
2023/04/07 13:21:26;;;;;;;;;;;;;;;;;;6264135;22;19915;-85
2023/04/07 13:24:02;;;;;;;;;;;;;;;;;;6242086;22;19919;-85
2023/04/07 13:26:57;;;;;;;;;;;;;;;;;;6183205;23;20479;-85
2023/04/07 13:32:42;;;;;;;;;;;;;;;;;;6170638;23;19957;-84
2023/04/07 13:35:22;;;;;;;;;;;;;;;;;;6176338;23;19973;-84
2023/04/07 13:37:49;;;;;;;;;;;;;;;;;;6198349;23;19919;-85
2023/04/07 13:40:33;;;;;;;;;;;;;;;;;;6199756;23;19919;-84
2023/04/07 13:43:05;;;;;;;;;;;;;;;;;;6173664;23;19920;-85
2023/04/07 13:45:55;;;;;;;;;;;;;;;;;;6199357;23;20277;-84
2023/04/07 13:52:39;;;;;;;;;;;;;;;;;;6173846;23;19919;-84
2023/04/07 13:55:04;;;;;;;;;;;;;;;;;;6214833;23;19959;-85
2023/04/07 13:57:49;;;;;;;;;;;;;;;;;;;;;
2023/04/07 14:00:34;;;;;;;;;;;;;;;;;;6215057;22;20271;-85
2023/04/07 14:03:23;;;;;;;;;;;;;;;;;;6283351;22;19923;-85
2023/04/07 14:09:09;;;;;;;;;;;;;;;;;;6252749;22;19922;-85
2023/04/07 14:11:41;;;;;;;;;;;;;;;;;;6235319;22;20396;-86
2023/04/07 14:14:41;;;;;;;;;;;;;;;;;;6263782;22;20243;-85
2023/04/07 14:17:26;;;;;;;;;;;;;;;;;;6240170;22;19964;-85
2023/04/07 14:19:58;;;;;;;;;;;;;;;;;;6231682;22;19994;-85
2023/04/07 14:22:49;;;;;;;;;;;;;;;;;;;;;
2023/04/07 14:25:15;;;;;;;;;;;;;;;;;;6260516;22;19966;-85
2023/04/07 14:27:51;;;;;;;;;;;;;;;;;;6257424;22;20272;-85
2023/04/07 14:30:26;;;;;;;;;;;;;;;;;;6229668;23;19915;-86
2023/04/07 14:33:16;;;;;;;;;;;;;;;;;;6207466;22;19927;-86
2023/04/07 14:38:56;;;;;;;;;;;;;;;;;;;;;
2023/04/07 14:41:45;;;;;;;;;;;;;;;;;;;;;
2023/04/07 14:44:20;;;;;;;;;;;;;;;;;;6108858;23;19963;-86
2023/04/07 14:55:46;;;;;;;;;;;;;;;;;;;;;
2023/04/07 15:01:31;;;;;;;;;;;;;;;;;;6107771;23;19943;-86
2023/04/07 15:07:17;;;;;;;;;;;;;;;;;;6107053;23;19921;-86
2023/04/07 15:10:01;;;;;;;;;;;;;;;;;;6083939;23;19925;-86
2023/04/07 15:15:25;;;;;;;;;;;;;;;;;;6112808;23;19920;-86
2023/04/07 15:21:07;;;;;;;;;;;;;;;;;;6113416;23;20349;-86
2023/04/07 15:23:42;;;;;;;;;;;;;;;;;;6116802;23;20230;-85
2023/04/07 15:26:08;;;;;;;;;;;;;;;;;;6115375;23;19944;-85
2023/04/07 15:28:55;;;;;;;;;;;;;;;;;;6141774;23;20499;-85
2023/04/07 15:31:39;;;;;;;;;;;;;;;;;;6068913;23;19929;-86
2023/04/07 15:34:17;;;;;;;;;;;;;;;;;;6135377;23;19924;-86
2023/04/07 15:37:05;;;;;;;;;;;;;;;;;;6143147;23;20648;-86
2023/04/07 15:42:38;;;;;;;;;;;;;;;;;;6155998;23;20381;-85
2023/04/07 15:45:07;;;;;;;;;;;;;;;;;;6156606;23;20547;-85
2023/04/07 15:48:02;;;;;;;;;;;;;;;;;;6145225;23;19925;-85
2023/04/07 15:50:51;;;;;;;;;;;;;;;;;;6156171;23;19917;-85
2023/04/07 15:53:39;;;;;;;;;;;;;;;;;;6133980;23;20289;-85
2023/04/07 15:56:21;;;;;;;;;;;;;;;;;;;;;
2023/04/07 16:05:15;;;;;;;;;;;;;;;;;;6006143;23;19933;-86
2023/04/07 16:07:50;;;;;;;;;;;;;;;;;;5972276;23;19918;-86
2023/04/07 16:10:25;;;;;;;;;;;;;;;;;;6005153;23;20038;-85
2023/04/07 16:12:57;;;;;;;;;;;;;;;;;;6094855;23;19924;-85
2023/04/07 16:15:35;;;;;;;;;;;;;;;;;;6201334;22;19919;-85
2023/04/07 16:18:06;;;;;;;;;;;;;;;;;;6242568;22;20397;-86
2023/04/07 16:20:33;;;;;;;;;;;;;;;;;;6267869;22;19918;-86
2023/04/07 16:23:05;;;;;;;;;;;;;;;;;;6240850;22;20327;-85
2023/04/07 16:25:41;;;;;;;;;;;;;;;;;;6242087;22;19922;-85
2023/04/07 16:28:21;;;;;;;;;;;;;;;;;;6245038;22;19922;-85
2023/04/07 16:31:07;;;;;;;;;;;;;;;;;;;;;
2023/04/07 16:33:36;;;;;;;;;;;;;;;;;;6229923;23;20345;-85
2023/04/07 16:36:17;;;;;;;;;;;;;;;;;;6142930;23;19920;-85
2023/04/07 16:38:48;;;;;;;;;;;;;;;;;;6167907;23;19928;-85
2023/04/07 16:44:44;;;;;;;;;;;;;;;;;;6144968;23;20306;-85
2023/04/07 16:47:13;;;;;;;;;;;;;;;;;;6136390;23;19920;-86
2023/04/07 16:53:25;;;;;;;;;;;;;;;;;;6134115;23;20363;-85
2023/04/07 16:56:09;;;;;;;;;;;;;;;;;;6073717;23;19957;-85
2023/04/07 17:01:28;;;;;;;;;;;;;;;;;;5997592;23;19921;-85
2023/04/07 17:07:57;;;;;;;;;;;;;;;;;;6110691;23;19932;-85
2023/04/07 17:10:38;;;;;;;;;;;;;;;;;;6112745;23;19999;-85
2023/04/07 17:13:20;;;;;;;;;;;;;;;;;;6089826;23;19933;-85
2023/04/07 17:15:57;;;;;;;;;;;;;;;;;;6064585;23;19956;-85
2023/04/07 17:21:36;;;;;;;;;;;;;;;;;;6148135;23;20089;-85
2023/04/07 17:24:15;;;;;;;;;;;;;;;;;;6182506;23;19920;-85
2023/04/07 17:26:50;;;;;;;;;;;;;;;;;;6132731;23;19983;-86
2023/04/07 17:29:27;;;;;;;;;;;;;;;;;;6218350;22;19919;-85
2023/04/07 17:32:02;;;;;;;;;;;;;;;;;;6185604;22;19968;-85
2023/04/07 17:38:01;;;;;;;;;;;;;;;;;;6234767;22;19977;-85
2023/04/07 17:40:32;;;;;;;;;;;;;;;;;;6227838;22;19919;-86
2023/04/07 17:43:37;;;;;;;;;;;;;;;;;;6231783;22;20325;-86
2023/04/07 17:48:58;;;;;;;;;;;;;;;;;;6231522;22;20015;-85
2023/04/07 17:51:45;;;;;;;;;;;;;;;;;;6209032;22;20282;-86
2023/04/07 17:54:18;;;;;;;;;;;;;;;;;;6229116;22;20494;-85
2023/04/07 17:57:02;;;;;;;;;;;;;;;;;;6257552;22;19919;-85
2023/04/07 18:02:35;;;;;;;;;;;;;;;;;;6261959;22;19919;-84
2023/04/07 18:05:19;;;;;;;;;;;;;;;;;;6256438;22;19926;-85
2023/04/07 18:08:10;;;;;;;;;;;;;;;;;;;;;
2023/04/07 18:10:42;;;;;;;;;;;;;;;;;;6265107;22;19958;-83
2023/04/07 18:13:08;;;;;;;;;;;;;;;;;;6239453;22;20131;-84
2023/04/07 18:21:33;;;;;;;;;;;;;;;;;;6215845;22;20274;-84
2023/04/07 18:24:30;;;;;;;;;;;;;;;;;;6235548;22;19954;-85
2023/04/07 18:29:52;;;;;;;;;;;;;;;;;;6266094;22;19925;-85
2023/04/07 18:32:36;;;;;;;;;;;;;;;;;;6288703;22;19977;-84
2023/04/07 18:35:30;;;;;;;;;;;;;;;;;;6248705;22;20172;-84
2023/04/07 18:38:08;;;;;;;;;;;;;;;;;;6235546;22;19915;-84
2023/04/07 18:44:14;;;;;;;;;;;;;;;;;;6259494;22;19915;-84
2023/04/07 18:47:04;;;;;;;;;;;;;;;;;;6301950;22;19918;-84
2023/04/07 18:49:52;;;;;;;;;;;;;;;;;;6199986;23;19920;-84
2023/04/07 18:52:17;;;;;;;;;;;;;;;;;;6199503;23;20198;-84
2023/04/07 18:57:42;;;;;;;;;;;;;;;;;;6127518;23;19959;-84
2023/04/07 19:03:21;;;;;;;;;;;;;;;;;;6134902;23;19948;-84
2023/04/07 19:06:03;;;;;;;;;;;;;;;;;;6168031;23;19916;-84
2023/04/07 19:09:03;;;;;;;;;;;;;;;;;;6160909;23;20413;-84
2023/04/07 19:21:15;;;;;;;;;;;;;;;;;;;;;
2023/04/07 19:27:10;;;;;;;;;;;;;;;;;;6261903;22;20288;-83
2023/04/07 19:30:09;;;;;;;;;;;;;;;;;;6266176;22;20008;-84
2023/04/07 19:32:55;;;;;;;;;;;;;;;;;;;;;
2023/04/07 19:35:57;;;;;;;;;;;;;;;;;;6211635;23;19994;-84
2023/04/07 19:38:45;;;;;;;;;;;;;;;;;;;;;
2023/04/07 19:41:37;;;;;;;;;;;;;;;;;;6294448;22;20343;-83
2023/04/07 19:44:33;;;;;;;;;;;;;;;;;;6286768;22;19961;-83
2023/04/07 19:47:12;;;;;;;;;;;;;;;;;;;;;
2023/04/07 19:49:46;;;;;;;;;;;;;;;;;;6266082;22;20374;-84
2023/04/07 19:52:12;;;;;;;;;;;;;;;;;;6264460;22;19922;-84
2023/04/07 19:58:00;;;;;;;;;;;;;;;;;;6282306;22;20151;-84
2023/04/07 20:00:48;;;;;;;;;;;;;;;;;;;;;
2023/04/07 20:03:16;;;;;;;;;;;;;;;;;;6238169;22;19963;-84
2023/04/07 20:05:45;;;;;;;;;;;;;;;;;;6243186;22;19986;-84
2023/04/07 20:08:14;;;;;;;;;;;;;;;;;;6201686;23;20005;-84
2023/04/07 20:11:06;;;;;;;;;;;;;;;;;;6190989;23;19924;-84
2023/04/07 20:16:37;;;;;;;;;;;;;;;;;;6190783;23;19919;-84
2023/04/07 20:19:30;;;;;;;;;;;;;;;;;;6225252;23;19923;-84
2023/04/07 20:22:11;;;;;;;;;;;;;;;;;;6196752;23;20365;-84
2023/04/07 20:27:37;;;;;;;;;;;;;;;;;;6238150;23;20664;-84
2023/04/07 20:30:19;;;;;;;;;;;;;;;;;;6203062;23;19927;-84
2023/04/07 20:32:45;;;;;;;;;;;;;;;;;;6200785;23;20408;-84
2023/04/07 20:35:22;;;;;;;;;;;;;;;;;;6204977;23;19970;-84
2023/04/07 20:37:54;;;;;;;;;;;;;;;;;;6202177;23;19925;-84
2023/04/07 20:46:39;;;;;;;;;;;;;;;;;;6229234;23;19923;-84
2023/04/07 20:49:14;;;;;;;;;;;;;;;;;;6179581;23;19927;-84
2023/04/07 20:51:40;;;;;;;;;;;;;;;;;;6227437;23;19923;-84
2023/04/07 20:54:09;;;;;;;;;;;;;;;;;;6176303;23;19923;-84
2023/04/07 20:56:45;;;;;;;;;;;;;;;;;;6229620;23;19955;-84
2023/04/07 20:59:28;;;;;;;;;;;;;;;;;;6229646;23;20021;-84
2023/04/07 21:02:04;;;;;;;;;;;;;;;;;;6229789;23;20333;-84
2023/04/07 21:04:38;;;;;;;;;;;;;;;;;;6192642;23;19920;-84
2023/04/07 21:07:22;;;;;;;;;;;;;;;;;;6177187;23;20265;-84
2023/04/07 21:09:56;;;;;;;;;;;;;;;;;;6229987;23;19920;-83
2023/04/07 21:15:20;;;;;;;;;;;;;;;;;;6231302;23;20033;-84
2023/04/07 21:17:52;;;;;;;;;;;;;;;;;;6246716;22;19919;-84